sensor_id;sensor_type;location;lat;lon;timestamp;pressure;altitude;pressure_sealevel;temperature;humidity
47716;BME280;33476;50.984;3.538;2023-04-15T00:00:35;100762.69;;;13.19;58.05
47716;BME280;33476;50.984;3.538;2023-04-15T00:03:01;100762.63;;;13.20;58.13
47716;BME280;33476;50.984;3.538;2023-04-15T00:05:28;100764.56;;;13.17;58.44
47716;BME280;33476;50.984;3.538;2023-04-15T00:07:54;100768.97;;;13.16;58.83
47716;BME280;33476;50.984;3.538;2023-04-15T00:10:19;100762.00;;;13.15;58.58
47716;BME280;33476;50.984;3.538;2023-04-15T00:12:44;100760.25;;;13.16;58.29
47716;BME280;33476;50.984;3.538;2023-04-15T00:15:10;100763.88;;;13.13;58.55
47716;BME280;33476;50.984;3.538;2023-04-15T00:17:36;100761.34;;;13.12;58.91
47716;BME280;33476;50.984;3.538;2023-04-15T00:20:04;100758.72;;;13.12;58.77
47716;BME280;33476;50.984;3.538;2023-04-15T00:22:30;100759.56;;;13.12;59.08
47716;BME280;33476;50.984;3.538;2023-04-15T00:24:56;100767.44;;;13.12;59.26
47716;BME280;33476;50.984;3.538;2023-04-15T00:27:22;100759.66;;;13.11;59.11
47716;BME280;33476;50.984;3.538;2023-04-15T00:29:47;100765.75;;;13.11;59.08
47716;BME280;33476;50.984;3.538;2023-04-15T00:32:13;100762.28;;;13.11;59.48
47716;BME280;33476;50.984;3.538;2023-04-15T00:34:38;100755.47;;;13.08;59.52
47716;BME280;33476;50.984;3.538;2023-04-15T00:37:03;100756.47;;;13.06;59.68
47716;BME280;33476;50.984;3.538;2023-04-15T00:39:29;100756.47;;;13.06;59.63
47716;BME280;33476;50.984;3.538;2023-04-15T00:41:55;100765.38;;;13.03;59.62
47716;BME280;33476;50.984;3.538;2023-04-15T00:44:21;100760.97;;;13.04;59.84
47716;BME280;33476;50.984;3.538;2023-04-15T00:46:50;100762.84;;;13.02;59.69
47716;BME280;33476;50.984;3.538;2023-04-15T00:49:15;100764.72;;;13.00;60.03
47716;BME280;33476;50.984;3.538;2023-04-15T00:51:42;100761.25;;;12.99;60.26
47716;BME280;33476;50.984;3.538;2023-04-15T00:54:08;100762.09;;;13.00;60.07
47716;BME280;33476;50.984;3.538;2023-04-15T00:56:34;100763.78;;;13.01;60.07
47716;BME280;33476;50.984;3.538;2023-04-15T00:59:01;100764.63;;;13.01;60.00
47716;BME280;33476;50.984;3.538;2023-04-15T01:01:27;100762.94;;;13.00;60.22
47716;BME280;33476;50.984;3.538;2023-04-15T01:03:54;100760.56;;;12.96;59.97
47716;BME280;33476;50.984;3.538;2023-04-15T01:06:20;100763.94;;;12.98;59.92
47716;BME280;33476;50.984;3.538;2023-04-15T01:08:46;100758.78;;;12.96;60.11
47716;BME280;33476;50.984;3.538;2023-04-15T01:11:12;100758.03;;;12.94;60.16
47716;BME280;33476;50.984;3.538;2023-04-15T01:13:37;100757.94;;;12.96;59.93
47716;BME280;33476;50.984;3.538;2023-04-15T01:16:03;100758.88;;;12.94;60.07
47716;BME280;33476;50.984;3.538;2023-04-15T01:18:29;100760.75;;;12.92;60.40
47716;BME280;33476;50.984;3.538;2023-04-15T01:20:55;100755.53;;;12.92;60.38
47716;BME280;33476;50.984;3.538;2023-04-15T01:23:21;100758.97;;;12.93;60.38
47716;BME280;33476;50.984;3.538;2023-04-15T01:25:50;100759.91;;;12.92;60.17
47716;BME280;33476;50.984;3.538;2023-04-15T01:28:17;100753.84;;;12.91;60.21
47716;BME280;33476;50.984;3.538;2023-04-15T01:30:43;100761.59;;;12.93;60.76
47716;BME280;33476;50.984;3.538;2023-04-15T01:33:08;100760.75;;;12.92;60.81
47716;BME280;33476;50.984;3.538;2023-04-15T01:35:34;100761.69;;;12.91;60.61
47716;BME280;33476;50.984;3.538;2023-04-15T01:38:05;100764.47;;;12.88;60.93
47716;BME280;33476;50.984;3.538;2023-04-15T01:40:32;100764.47;;;12.88;60.86
47716;BME280;33476;50.984;3.538;2023-04-15T01:42:58;100765.50;;;12.86;61.21
47716;BME280;33476;50.984;3.538;2023-04-15T01:45:23;100771.69;;;12.85;61.33
47716;BME280;33476;50.984;3.538;2023-04-15T01:47:49;100769.16;;;12.83;61.55
47716;BME280;33476;50.984;3.538;2023-04-15T01:50:14;100771.00;;;12.81;61.23
47716;BME280;33476;50.984;3.538;2023-04-15T01:52:40;100775.50;;;12.79;61.58
47716;BME280;33476;50.984;3.538;2023-04-15T01:55:06;100774.66;;;12.79;61.92
47716;BME280;33476;50.984;3.538;2023-04-15T01:57:32;100770.44;;;12.76;61.76
47716;BME280;33476;50.984;3.538;2023-04-15T01:59:58;100778.41;;;12.75;62.21
47716;BME280;33476;50.984;3.538;2023-04-15T02:02:23;100775.00;;;12.73;62.10
47716;BME280;33476;50.984;3.538;2023-04-15T02:04:49;100776.69;;;12.74;62.18
47716;BME280;33476;50.984;3.538;2023-04-15T02:07:14;100775.09;;;12.71;62.35
47716;BME280;33476;50.984;3.538;2023-04-15T02:09:39;100787.34;;;12.71;62.21
47716;BME280;33476;50.984;3.538;2023-04-15T02:12:05;100785.47;;;12.73;62.17
47716;BME280;33476;50.984;3.538;2023-04-15T02:14:30;100779.41;;;12.72;62.54
47716;BME280;33476;50.984;3.538;2023-04-15T02:16:56;100784.84;;;12.69;62.36
47716;BME280;33476;50.984;3.538;2023-04-15T02:19:21;100788.28;;;12.70;62.58
47716;BME280;33476;50.984;3.538;2023-04-15T02:21:46;100783.25;;;12.67;62.99
47716;BME280;33476;50.984;3.538;2023-04-15T02:24:12;100791.00;;;12.68;62.75
47716;BME280;33476;50.984;3.538;2023-04-15T02:26:37;100787.69;;;12.64;63.14
47716;BME280;33476;50.984;3.538;2023-04-15T02:29:02;100797.34;;;12.64;63.30
47716;BME280;33476;50.984;3.538;2023-04-15T02:31:28;100801.81;;;12.62;62.97
47716;BME280;33476;50.984;3.538;2023-04-15T02:33:53;100805.28;;;12.62;63.34
47716;BME280;33476;50.984;3.538;2023-04-15T02:36:18;100807.91;;;12.62;63.23
47716;BME280;33476;50.984;3.538;2023-04-15T02:38:45;100802.66;;;12.62;63.30
47716;BME280;33476;50.984;3.538;2023-04-15T02:41:10;100802.75;;;12.61;63.37
47716;BME280;33476;50.984;3.538;2023-04-15T02:43:36;100807.16;;;12.60;63.36
47716;BME280;33476;50.984;3.538;2023-04-15T02:46:04;100812.50;;;12.59;63.69
47716;BME280;33476;50.984;3.538;2023-04-15T02:48:29;100812.31;;;12.62;63.41
47716;BME280;33476;50.984;3.538;2023-04-15T02:51:18;100808.19;;;12.58;63.52
47716;BME280;33476;50.984;3.538;2023-04-15T02:53:45;100812.31;;;12.62;63.11
47716;BME280;33476;50.984;3.538;2023-04-15T02:56:10;100812.50;;;12.59;63.51
47716;BME280;33476;50.984;3.538;2023-04-15T02:58:36;100812.50;;;12.59;63.52
47716;BME280;33476;50.984;3.538;2023-04-15T03:01:02;100819.41;;;12.60;63.59
47716;BME280;33476;50.984;3.538;2023-04-15T03:03:27;100815.13;;;12.59;63.62
47716;BME280;33476;50.984;3.538;2023-04-15T03:05:53;100820.41;;;12.57;64.02
47716;BME280;33476;50.984;3.538;2023-04-15T03:08:18;100816.06;;;12.58;64.09
47716;BME280;33476;50.984;3.538;2023-04-15T03:10:45;100817.03;;;12.55;63.98
47716;BME280;33476;50.984;3.538;2023-04-15T03:13:10;100816.09;;;12.56;64.26
47716;BME280;33476;50.984;3.538;2023-04-15T03:15:36;100827.38;;;12.58;63.94
47716;BME280;33476;50.984;3.538;2023-04-15T03:18:01;100822.13;;;12.58;64.00
47716;BME280;33476;50.984;3.538;2023-04-15T03:20:26;100823.97;;;12.56;64.49
47716;BME280;33476;50.984;3.538;2023-04-15T03:22:52;100823.97;;;12.56;64.64
47716;BME280;33476;50.984;3.538;2023-04-15T03:25:17;100827.53;;;12.55;64.57
47716;BME280;33476;50.984;3.538;2023-04-15T03:27:42;100825.94;;;12.53;64.66
47716;BME280;33476;50.984;3.538;2023-04-15T03:30:08;100832.84;;;12.54;64.49
47716;BME280;33476;50.984;3.538;2023-04-15T03:32:34;100843.34;;;12.54;64.52
47716;BME280;33476;50.984;3.538;2023-04-15T03:34:59;100839.03;;;12.53;64.81
47716;BME280;33476;50.984;3.538;2023-04-15T03:37:24;100844.94;;;12.56;64.43
47716;BME280;33476;50.984;3.538;2023-04-15T03:39:50;100837.06;;;12.56;64.58
47716;BME280;33476;50.984;3.538;2023-04-15T03:42:15;100843.34;;;12.54;64.95
47716;BME280;33476;50.984;3.538;2023-04-15T03:44:41;100841.56;;;12.54;64.98
47716;BME280;33476;50.984;3.538;2023-04-15T03:47:06;100843.34;;;12.54;64.92
47716;BME280;33476;50.984;3.538;2023-04-15T03:49:31;100848.75;;;12.51;64.80
47716;BME280;33476;50.984;3.538;2023-04-15T03:51:57;100849.69;;;12.50;64.80
47716;BME280;33476;50.984;3.538;2023-04-15T03:54:23;100846.13;;;12.51;65.11
47716;BME280;33476;50.984;3.538;2023-04-15T03:56:49;100853.16;;;12.50;64.90
47716;BME280;33476;50.984;3.538;2023-04-15T03:59:14;100855.91;;;12.47;65.40
47716;BME280;33476;50.984;3.538;2023-04-15T04:01:39;100859.38;;;12.48;65.42
47716;BME280;33476;50.984;3.538;2023-04-15T04:04:05;100862.00;;;12.48;65.34
47716;BME280;33476;50.984;3.538;2023-04-15T04:06:30;100861.16;;;12.47;65.34
47716;BME280;33476;50.984;3.538;2023-04-15T04:08:56;100869.94;;;12.46;65.43
47716;BME280;33476;50.984;3.538;2023-04-15T04:11:21;100870.88;;;12.45;65.33
47716;BME280;33476;50.984;3.538;2023-04-15T04:13:46;100873.50;;;12.45;65.28
47716;BME280;33476;50.984;3.538;2023-04-15T04:16:12;100876.22;;;12.44;65.77
47716;BME280;33476;50.984;3.538;2023-04-15T04:18:37;100882.44;;;12.41;65.91
47716;BME280;33476;50.984;3.538;2023-04-15T04:21:02;100880.69;;;12.42;65.94
47716;BME280;33476;50.984;3.538;2023-04-15T04:23:28;100890.41;;;12.40;66.19
47716;BME280;33476;50.984;3.538;2023-04-15T04:25:53;100884.31;;;12.39;65.94
47716;BME280;33476;50.984;3.538;2023-04-15T04:28:18;100892.03;;;12.42;66.19
47716;BME280;33476;50.984;3.538;2023-04-15T04:30:44;100896.41;;;12.42;66.45
47716;BME280;33476;50.984;3.538;2023-04-15T04:33:09;100896.47;;;12.40;66.31
47716;BME280;33476;50.984;3.538;2023-04-15T04:35:35;100898.09;;;12.43;66.41
47716;BME280;33476;50.984;3.538;2023-04-15T04:38:02;100899.94;;;12.41;66.64
47716;BME280;33476;50.984;3.538;2023-04-15T04:40:27;100899.09;;;12.40;66.63
47716;BME280;33476;50.984;3.538;2023-04-15T04:42:53;100903.34;;;12.43;66.45
47716;BME280;33476;50.984;3.538;2023-04-15T04:45:19;100911.44;;;12.38;66.63
47716;BME280;33476;50.984;3.538;2023-04-15T04:47:44;100916.84;;;12.35;67.02
47716;BME280;33476;50.984;3.538;2023-04-15T04:50:10;100919.56;;;12.33;66.83
47716;BME280;33476;50.984;3.538;2023-04-15T04:52:36;100924.72;;;12.35;66.92
47716;BME280;33476;50.984;3.538;2023-04-15T04:55:02;100928.09;;;12.37;66.88
47716;BME280;33476;50.984;3.538;2023-04-15T04:57:27;100936.03;;;12.35;67.18
47716;BME280;33476;50.984;3.538;2023-04-15T04:59:53;100937.03;;;12.33;67.29
47716;BME280;33476;50.984;3.538;2023-04-15T05:02:18;100941.34;;;12.34;67.01
47716;BME280;33476;50.984;3.538;2023-04-15T05:04:43;100939.50;;;12.36;67.04
47716;BME280;33476;50.984;3.538;2023-04-15T05:07:09;100944.63;;;12.37;67.10
47716;BME280;33476;50.984;3.538;2023-04-15T05:09:34;100945.66;;;12.35;67.42
47716;BME280;33476;50.984;3.538;2023-04-15T05:12:01;100950.91;;;12.35;67.49
47716;BME280;33476;50.984;3.538;2023-04-15T05:14:26;100959.59;;;12.35;67.27
47716;BME280;33476;50.984;3.538;2023-04-15T05:16:52;100961.28;;;12.36;67.45
47716;BME280;33476;50.984;3.538;2023-04-15T05:19:17;100965.69;;;12.36;67.03
47716;BME280;33476;50.984;3.538;2023-04-15T05:21:42;100961.28;;;12.36;67.10
47716;BME280;33476;50.984;3.538;2023-04-15T05:24:08;100970.84;;;12.37;67.22
47716;BME280;33476;50.984;3.538;2023-04-15T05:26:33;100979.53;;;12.38;67.05
47716;BME280;33476;50.984;3.538;2023-04-15T05:28:58;100984.00;;;12.36;67.15
47716;BME280;33476;50.984;3.538;2023-04-15T05:31:24;100988.41;;;12.35;67.06
47716;BME280;33476;50.984;3.538;2023-04-15T05:33:49;100989.94;;;12.40;66.96
47716;BME280;33476;50.984;3.538;2023-04-15T05:36:15;100996.94;;;12.39;67.01
47716;BME280;33476;50.984;3.538;2023-04-15T05:38:40;101002.94;;;12.41;66.87
47716;BME280;33476;50.984;3.538;2023-04-15T05:41:06;101002.94;;;12.41;67.17
47716;BME280;33476;50.984;3.538;2023-04-15T05:43:31;101013.41;;;12.41;66.88
47716;BME280;33476;50.984;3.538;2023-04-15T05:45:56;101011.66;;;12.42;66.74
47716;BME280;33476;50.984;3.538;2023-04-15T05:48:22;101018.50;;;12.44;67.21
47716;BME280;33476;50.984;3.538;2023-04-15T05:50:47;101017.59;;;12.45;66.92
47716;BME280;33476;50.984;3.538;2023-04-15T05:53:12;101024.50;;;12.46;66.69
47716;BME280;33476;50.984;3.538;2023-04-15T05:55:38;101025.44;;;12.45;66.72
47716;BME280;33476;50.984;3.538;2023-04-15T05:58:03;101038.44;;;12.47;66.67
47716;BME280;33476;50.984;3.538;2023-04-15T06:00:28;101042.75;;;12.48;66.99
47716;BME280;33476;50.984;3.538;2023-04-15T06:02:55;101042.75;;;12.48;67.30
47716;BME280;33476;50.984;3.538;2023-04-15T06:05:21;101043.59;;;12.48;67.20
47716;BME280;33476;50.984;3.538;2023-04-15T06:07:47;101052.19;;;12.52;66.94
47716;BME280;33476;50.984;3.538;2023-04-15T06:10:12;101050.31;;;12.54;67.10
47716;BME280;33476;50.984;3.538;2023-04-15T06:12:37;101062.66;;;12.52;67.03
47716;BME280;33476;50.984;3.538;2023-04-15T06:15:03;101066.13;;;12.52;67.07
47716;BME280;33476;50.984;3.538;2023-04-15T06:17:30;101068.66;;;12.54;67.26
47716;BME280;33476;50.984;3.538;2023-04-15T06:19:56;101072.03;;;12.56;67.24
47716;BME280;33476;50.984;3.538;2023-04-15T06:22:22;101072.72;;;12.59;67.01
47716;BME280;33476;50.984;3.538;2023-04-15T06:24:48;101076.13;;;12.61;67.25
47716;BME280;33476;50.984;3.538;2023-04-15T06:27:15;101074.25;;;12.63;67.22
47716;BME280;33476;50.984;3.538;2023-04-15T06:29:40;101089.00;;;12.66;66.96
47716;BME280;33476;50.984;3.538;2023-04-15T06:32:05;101086.38;;;12.66;67.34
47716;BME280;33476;50.984;3.538;2023-04-15T06:34:31;101092.38;;;12.68;67.01
47716;BME280;33476;50.984;3.538;2023-04-15T06:36:56;101095.66;;;12.72;67.07
47716;BME280;33476;50.984;3.538;2023-04-15T06:39:21;101104.47;;;12.71;66.87
47716;BME280;33476;50.984;3.538;2023-04-15T06:41:47;101099.22;;;12.71;67.13
47716;BME280;33476;50.984;3.538;2023-04-15T06:44:12;101101.63;;;12.75;67.00
47716;BME280;33476;50.984;3.538;2023-04-15T06:46:38;101092.72;;;12.78;66.83
47716;BME280;33476;50.984;3.538;2023-04-15T06:49:03;101093.41;;;12.81;66.83
47716;BME280;33476;50.984;3.538;2023-04-15T06:51:29;101089.78;;;12.84;66.57
47716;BME280;33476;50.984;3.538;2023-04-15T06:53:55;101106.19;;;12.87;66.83
47716;BME280;33476;50.984;3.538;2023-04-15T06:56:21;101103.41;;;12.90;66.77
47716;BME280;33476;50.984;3.538;2023-04-15T06:58:47;101109.34;;;12.94;66.38
47716;BME280;33476;50.984;3.538;2023-04-15T07:01:13;101109.25;;;12.96;66.58
47716;BME280;33476;50.984;3.538;2023-04-15T07:03:38;101120.59;;;12.96;66.86
47716;BME280;33476;50.984;3.538;2023-04-15T07:06:03;101125.75;;;12.98;66.50
47716;BME280;33476;50.984;3.538;2023-04-15T07:08:31;101126.53;;;13.00;66.59
47716;BME280;33476;50.984;3.538;2023-04-15T07:10:58;101122.03;;;13.02;66.83
47716;BME280;33476;50.984;3.538;2023-04-15T07:13:23;101127.28;;;13.02;66.66
47716;BME280;33476;50.984;3.538;2023-04-15T07:15:49;101133.28;;;13.04;66.31
47716;BME280;33476;50.984;3.538;2023-04-15T07:18:14;101138.31;;;13.08;66.21
47716;BME280;33476;50.984;3.538;2023-04-15T07:20:40;101141.69;;;13.10;66.19
47716;BME280;33476;50.984;3.538;2023-04-15T07:23:05;101138.81;;;13.15;66.49
47716;BME280;33476;50.984;3.538;2023-04-15T07:25:31;101142.13;;;13.18;66.42
47716;BME280;33476;50.984;3.538;2023-04-15T07:27:56;101155.00;;;13.23;66.45
47716;BME280;33476;50.984;3.538;2023-04-15T07:30:22;101157.41;;;13.28;66.30
47716;BME280;33476;50.984;3.538;2023-04-15T07:32:47;101165.94;;;13.31;66.10
47716;BME280;33476;50.984;3.538;2023-04-15T07:35:13;101171.03;;;13.34;66.43
47716;BME280;33476;50.984;3.538;2023-04-15T07:37:38;101170.88;;;13.37;66.59
47716;BME280;33476;50.984;3.538;2023-04-15T07:40:04;101173.31;;;13.40;66.51
47716;BME280;33476;50.984;3.538;2023-04-15T07:42:32;101180.00;;;13.46;65.96
47716;BME280;33476;50.984;3.538;2023-04-15T07:44:58;101179.06;;;13.47;66.07
47716;BME280;33476;50.984;3.538;2023-04-15T07:47:23;101191.22;;;13.49;66.03
47716;BME280;33476;50.984;3.538;2023-04-15T07:49:48;101193.47;;;13.56;65.95
47716;BME280;33476;50.984;3.538;2023-04-15T07:52:15;101203.56;;;13.63;65.98
47716;BME280;33476;50.984;3.538;2023-04-15T07:54:40;101211.19;;;13.68;66.16
47716;BME280;33476;50.984;3.538;2023-04-15T07:57:06;101226.84;;;13.69;66.13
47716;BME280;33476;50.984;3.538;2023-04-15T07:59:32;101235.50;;;13.71;66.23
47716;BME280;33476;50.984;3.538;2023-04-15T08:01:57;101240.50;;;13.76;65.82
47716;BME280;33476;50.984;3.538;2023-04-15T08:04:23;101248.47;;;13.74;66.21
47716;BME280;33476;50.984;3.538;2023-04-15T08:06:49;101256.34;;;13.74;65.84
47716;BME280;33476;50.984;3.538;2023-04-15T08:09:15;101259.63;;;13.78;65.35
47716;BME280;33476;50.984;3.538;2023-04-15T08:11:40;101261.09;;;13.84;64.68
47716;BME280;33476;50.984;3.538;2023-04-15T08:14:05;101268.78;;;13.87;64.41
47716;BME280;33476;50.984;3.538;2023-04-15T08:16:31;101263.34;;;13.90;64.12
47716;BME280;33476;50.984;3.538;2023-04-15T08:18:56;101268.19;;;13.97;63.62
47716;BME280;33476;50.984;3.538;2023-04-15T08:21:22;101273.63;;;14.10;63.17
47716;BME280;33476;50.984;3.538;2023-04-15T08:23:49;101284.75;;;14.15;62.30
47716;BME280;33476;50.984;3.538;2023-04-15T08:26:16;101282.88;;;14.17;61.67
47716;BME280;33476;50.984;3.538;2023-04-15T08:28:44;101289.50;;;14.24;61.50
47716;BME280;33476;50.984;3.538;2023-04-15T08:31:11;101287.84;;;14.38;61.15
47716;BME280;33476;50.984;3.538;2023-04-15T08:33:36;101290.94;;;14.46;60.66
47716;BME280;33476;50.984;3.538;2023-04-15T08:36:02;101294.16;;;14.51;60.27
47716;BME280;33476;50.984;3.538;2023-04-15T08:38:28;101295.22;;;14.63;60.16
47716;BME280;33476;50.984;3.538;2023-04-15T08:40:54;101307.41;;;14.79;59.38
47716;BME280;33476;50.984;3.538;2023-04-15T08:43:22;101307.81;;;14.87;58.95
47716;BME280;33476;50.984;3.538;2023-04-15T08:45:51;101310.28;;;15.05;59.32
47716;BME280;33476;50.984;3.538;2023-04-15T08:48:17;101313.47;;;15.26;58.73
47716;BME280;33476;50.984;3.538;2023-04-15T08:50:44;101313.78;;;15.50;58.45
47716;BME280;33476;50.984;3.538;2023-04-15T08:53:10;101317.84;;;15.69;58.22
47716;BME280;33476;50.984;3.538;2023-04-15T08:55:40;101315.78;;;15.75;58.18
47716;BME280;33476;50.984;3.538;2023-04-15T08:58:07;101318.22;;;15.78;57.50
47716;BME280;33476;50.984;3.538;2023-04-15T09:00:33;101321.44;;;15.83;57.77
47716;BME280;33476;50.984;3.538;2023-04-15T09:02:59;101328.75;;;15.92;57.37
47716;BME280;33476;50.984;3.538;2023-04-15T09:05:25;101332.97;;;15.94;57.04
47716;BME280;33476;50.984;3.538;2023-04-15T09:07:50;101340.13;;;15.92;56.91
47716;BME280;33476;50.984;3.538;2023-04-15T09:10:16;101345.03;;;15.98;56.87
47716;BME280;33476;50.984;3.538;2023-04-15T09:12:42;101345.47;;;16.05;55.89
47716;BME280;33476;50.984;3.538;2023-04-15T09:15:10;101345.31;;;16.08;55.46
47716;BME280;33476;50.984;3.538;2023-04-15T09:17:41;101352.91;;;16.13;55.35
47716;BME280;33476;50.984;3.538;2023-04-15T09:20:08;101353.84;;;16.26;55.67
47716;BME280;33476;50.984;3.538;2023-04-15T09:22:33;101366.44;;;16.35;54.74
47716;BME280;33476;50.984;3.538;2023-04-15T09:24:59;101375.19;;;16.36;54.14
47716;BME280;33476;50.984;3.538;2023-04-15T09:27:25;101377.66;;;16.39;54.07
47716;BME280;33476;50.984;3.538;2023-04-15T09:29:52;101376.28;;;16.46;54.40
47716;BME280;33476;50.984;3.538;2023-04-15T09:32:18;101390.78;;;16.53;54.19
47716;BME280;33476;50.984;3.538;2023-04-15T09:34:45;101396.72;;;16.56;53.63
47716;BME280;33476;50.984;3.538;2023-04-15T09:37:10;101394.09;;;16.56;53.73
47716;BME280;33476;50.984;3.538;2023-04-15T09:39:48;101397.84;;;16.52;53.13
47716;BME280;33476;50.984;3.538;2023-04-15T09:42:14;101399.25;;;16.58;52.70
47716;BME280;33476;50.984;3.538;2023-04-15T09:44:42;101414.69;;;16.64;52.53
47716;BME280;33476;50.984;3.538;2023-04-15T09:47:07;101411.69;;;16.70;52.54
47716;BME280;33476;50.984;3.538;2023-04-15T09:49:32;101417.50;;;16.75;52.46
47716;BME280;33476;50.984;3.538;2023-04-15T09:52:01;101423.53;;;16.77;52.74
47716;BME280;33476;50.984;3.538;2023-04-15T09:54:32;101423.53;;;16.77;52.15
47716;BME280;33476;50.984;3.538;2023-04-15T09:57:04;101436.13;;;16.87;52.44
47716;BME280;33476;50.984;3.538;2023-04-15T09:59:30;101432.47;;;16.89;52.39
47716;BME280;33476;50.984;3.538;2023-04-15T10:01:56;101440.91;;;16.94;51.94
47716;BME280;33476;50.984;3.538;2023-04-15T10:04:22;101444.22;;;16.98;51.62
47716;BME280;33476;50.984;3.538;2023-04-15T10:06:48;101450.13;;;17.01;51.75
47716;BME280;33476;50.984;3.538;2023-04-15T10:09:13;101458.19;;;17.12;51.59
47716;BME280;33476;50.984;3.538;2023-04-15T10:11:38;101449.47;;;17.25;51.84
47716;BME280;33476;50.984;3.538;2023-04-15T10:14:05;101457.84;;;17.31;51.21
47716;BME280;33476;50.984;3.538;2023-04-15T10:16:31;101458.06;;;17.41;51.11
47716;BME280;33476;50.984;3.538;2023-04-15T10:19:00;101468.25;;;17.47;50.89
47716;BME280;33476;50.984;3.538;2023-04-15T10:21:27;101461.72;;;17.65;50.32
47716;BME280;33476;50.984;3.538;2023-04-15T10:23:52;101464.00;;;17.84;49.90
47716;BME280;33476;50.984;3.538;2023-04-15T10:26:18;101463.25;;;18.08;50.04
47716;BME280;33476;50.984;3.538;2023-04-15T10:28:44;101477.53;;;18.31;49.52
47716;BME280;33476;50.984;3.538;2023-04-15T10:31:12;101476.78;;;18.41;48.90
47716;BME280;33476;50.984;3.538;2023-04-15T10:33:39;101478.16;;;18.47;48.24
47716;BME280;33476;50.984;3.538;2023-04-15T10:36:06;101484.41;;;18.46;48.11
47716;BME280;33476;50.984;3.538;2023-04-15T10:38:42;101477.84;;;18.39;47.98
47716;BME280;33476;50.984;3.538;2023-04-15T10:43:37;101474.88;;;18.31;48.12
47716;BME280;33476;50.984;3.538;2023-04-15T10:46:04;101484.09;;;18.38;48.37
47716;BME280;33476;50.984;3.538;2023-04-15T10:48:30;101490.19;;;18.51;48.60
47716;BME280;33476;50.984;3.538;2023-04-15T10:50:57;101493.38;;;18.56;47.40
47716;BME280;33476;50.984;3.538;2023-04-15T10:53:27;101494.81;;;18.60;47.31
47716;BME280;33476;50.984;3.538;2023-04-15T10:55:53;101496.84;;;18.69;47.84
47716;BME280;33476;50.984;3.538;2023-04-15T10:58:22;101496.41;;;18.75;47.56
47716;BME280;33476;50.984;3.538;2023-04-15T11:00:52;101505.72;;;18.81;47.27
47716;BME280;33476;50.984;3.538;2023-04-15T11:03:36;101505.84;;;18.79;45.59
47716;BME280;33476;50.984;3.538;2023-04-15T11:06:02;101499.38;;;18.84;45.98
47716;BME280;33476;50.984;3.538;2023-04-15T11:08:55;101508.78;;;18.88;45.84
47716;BME280;33476;50.984;3.538;2023-04-15T11:11:21;101505.88;;;19.03;44.97
47716;BME280;33476;50.984;3.538;2023-04-15T11:13:48;101518.44;;;19.13;44.19
47716;BME280;33476;50.984;3.538;2023-04-15T11:16:14;101519.78;;;19.18;43.56
47716;BME280;33476;50.984;3.538;2023-04-15T11:18:40;101527.72;;;19.18;42.21
47716;BME280;33476;50.984;3.538;2023-04-15T11:21:07;101518.16;;;19.04;41.54
47716;BME280;33476;50.984;3.538;2023-04-15T11:23:40;101529.81;;;19.02;41.39
47716;BME280;33476;50.984;3.538;2023-04-15T11:26:12;101524.78;;;19.10;40.74
47716;BME280;33476;50.984;3.538;2023-04-15T11:28:39;101532.41;;;19.15;39.95
47716;BME280;33476;50.984;3.538;2023-04-15T11:31:16;101533.03;;;19.18;39.91
47716;BME280;33476;50.984;3.538;2023-04-15T11:33:58;101538.41;;;19.29;39.65
47716;BME280;33476;50.984;3.538;2023-04-15T11:36:27;101542.91;;;19.40;39.60
47716;BME280;33476;50.984;3.538;2023-04-15T11:38:53;101558.13;;;19.49;38.34
47716;BME280;33476;50.984;3.538;2023-04-15T11:41:22;101561.00;;;19.46;37.07
47716;BME280;33476;50.984;3.538;2023-04-15T11:43:48;101558.56;;;19.43;37.11
47716;BME280;33476;50.984;3.538;2023-04-15T11:46:13;101566.88;;;19.39;36.99
47716;BME280;33476;50.984;3.538;2023-04-15T11:48:42;101573.00;;;19.39;36.31
47716;BME280;33476;50.984;3.538;2023-04-15T11:51:08;101573.84;;;19.40;35.47
47716;BME280;33476;50.984;3.538;2023-04-15T11:53:42;101577.19;;;19.30;35.59
47716;BME280;33476;50.984;3.538;2023-04-15T11:58:46;101591.25;;;19.31;36.25
47716;BME280;33476;50.984;3.538;2023-04-15T12:01:12;101591.25;;;19.31;36.40
47716;BME280;33476;50.984;3.538;2023-04-15T12:03:40;101596.13;;;19.37;36.95
47716;BME280;33476;50.984;3.538;2023-04-15T12:06:22;101602.03;;;19.41;37.22
47716;BME280;33476;50.984;3.538;2023-04-15T12:13:54;101607.38;;;19.52;36.91
47716;BME280;33476;50.984;3.538;2023-04-15T12:16:21;101623.53;;;19.49;36.74
47716;BME280;33476;50.984;3.538;2023-04-15T12:18:50;101618.94;;;19.51;37.37
47716;BME280;33476;50.984;3.538;2023-04-15T12:21:20;101625.00;;;19.53;36.92
47716;BME280;33476;50.984;3.538;2023-04-15T12:26:15;101635.38;;;19.56;36.46
47716;BME280;33476;50.984;3.538;2023-04-15T12:28:40;101646.19;;;19.53;36.05
47716;BME280;33476;50.984;3.538;2023-04-15T12:31:10;101645.78;;;19.46;35.72
47716;BME280;33476;50.984;3.538;2023-04-15T12:33:36;101648.44;;;19.46;34.57
47716;BME280;33476;50.984;3.538;2023-04-15T12:36:02;101648.03;;;19.40;34.77
47716;BME280;33476;50.984;3.538;2023-04-15T12:38:27;101656.94;;;19.39;34.53
47716;BME280;33476;50.984;3.538;2023-04-15T12:40:52;101661.16;;;19.41;34.48
47716;BME280;33476;50.984;3.538;2023-04-15T12:43:18;101657.25;;;19.34;35.18
47716;BME280;33476;50.984;3.538;2023-04-15T12:45:43;101677.81;;;19.30;34.50
47716;BME280;33476;50.984;3.538;2023-04-15T12:48:08;101673.31;;;19.20;34.37
47716;BME280;33476;50.984;3.538;2023-04-15T12:50:34;101665.25;;;19.21;33.76
47716;BME280;33476;50.984;3.538;2023-04-15T12:53:00;101677.84;;;19.18;33.90
47716;BME280;33476;50.984;3.538;2023-04-15T12:55:25;101679.44;;;19.20;34.11
47716;BME280;33476;50.984;3.538;2023-04-15T12:57:51;101678.38;;;19.23;34.44